Alva, Australia

1:55 PM AEST on April 26, 2018 (GMT +1000)
alva beach | | Change Station

Elev 6 ft 19.46 °S, 147.48 °E | Updated 14 seconds ago

Clear
Clear
80.6 °F
Feels Like 89 °F
N
8.3
Wind Variable Wind from SW
Gusts 9.8 mph

Today
High -- | Low -- °F
--% Chance of Precip.
Yesterday
High -- | Low -- °F
Precip. -- in
Pressure 29.86 in
Visibility 6.2 miles
Clouds Few 3500 ft
Heat Index 89 °F
Dew Point 80 °F
Humidity 99%
Rainfall 0.00 in
Snow Depth Not available.
6:23 AM 5:52 PM
Waxing Gibbous, 84% visible
METAR YBTL 260330Z 04009KT 9999 FEW035 29/19 Q1011 NOSIG
Pressure 29.86 in
Visibility 6.2 miles
Clouds Few 3500 ft
Heat Index 89 °F
Dew Point 80 °F
Humidity 99%
Rainfall 0.00 in
Snow Depth Not available.
6:23 AM 5:52 PM
Waxing Gibbous, 84% visible
METAR YBTL 260330Z 04009KT 9999 FEW035 29/19 Q1011 NOSIG

Get Severe Weather Alerts

Thanks for signing up!

Be on the lookout for a verification email in your inbox.

You'll start receiving the daily forecast at 6 AM.

×

10-Day Weather Forecast

×

Almanac

Astronomy

Apr. 26, 2018 Rise Set
Actual Time
Civil Twilight
Nautical Twilight
Astronomical Twilight
Moon
Length of Visible Light
Length of Day
Tomorrow will be .
, % of the Moon is Illuminated

Today's Extremes

Country Highs Country Lows

Community

WunderPhotos

Category 6

Welcome to Category 6. This is the collective home for Weather Underground's featured writeups by Dr. Jeff Masters (right), Bob Henson (left), Chris Burt, and other regular contributors.

Nearby

Air Quality

  Air Quality AQ Index Pollutant
Not available.

Snow Depth

Station Depth Elevation

Earthquake Activity

City Distance Mag. Time & Date
Minimum magnitude displayed is 2.5.

Coastal Water Temperatures

Place Temperature

Stations

Nearby Weather Stations

Station Location Temp. Windchill Dew Point Humidity Wind Precip. Elev Updated Type